Tiempo atmosférico en la estación meteorológica de Colmenar Viejo, Madrid (1004 m.)



Fecha
DESCASC
Temp. máxima en grados centígrados (hora)
DESCASC
Temp. mínima en grados centígrados (hora)
DESCASC
Temp. media en grados centígrados
DESCASC
Racha de viento máxima en m/sg (hora)
DESCASC
Velocidad máxima media en intervalos de 10 minutos(hora)
DESCASC
Precipitaciones diarias en mm
DESCASC
Precipitaciones de 00:00 a 06:00 en mm
DESCASC
Precipitaciones de 06:00 a 12:00 en mm
DESCASC
Precipitaciones de 12:00 a 18:00 en mm
DESCASC
Precipitaciones de 18:00 a 24:00 en mm
DESCASC
18-01-2018 12.2 (16:40) 1.8 (06:00) 7 9.72 (09:50) 2.5 (07:20) 0 0 0 0 0
17-01-2018 10.8 (15:30) 3.2 (06:10) 7 5.56 (10:40) 3.06 (03:50) 0 0 0 0 0
16-01-2018 9.6 (16:00) 0 (06:20) 4.8 7.5 (13:00) 2.78 (14:20) 0 0 0 0 0
15-01-2018 5.7 (15:10) -1.8 (08:20) 1.9 8.89 (13:30) 3.06 (16:20) 0 0 0 0 0
14-01-2018 2 (17:30) -3.3 (-00:0) -0.6 4.17 (14:30) 2.78 (14:20) 4.9 0 2.3 2.6 0
13-01-2018 2.2 (10:50) -2.3 (-00:0) 0 3.61 (21:30) 2.22 (17:30) 1.7 0 0 1.5 0.2
12-01-2018 6 (14:50) -0.9 (-00:0) 2.6 5.56 (01:20) 3.06 (02:10) 0 0 0 0 0
11-01-2018 6.2 (15:00) 1.2 (00:00) 3.7 22.22 (14:10) 10.28 (14:10) 0.9 0.1 0.8 0 0
10-01-2018 3.4 (20:20) -0.8 (-00:0) 1.3 13.89 (21:20) 6.11 (19:00) 7.2 0 6.5 0.6 0.1
09-01-2018 0 (16:00) -3 (-00:0) -1.5 7.22 (12:00) 2.22 (14:00) 0 0 0 0 0
08-01-2018 4.9 (17:00) -2 (-00:0) 1.5 5.28 (05:50) 3.06 (06:00) 0 0 0 0 0
07-01-2018 0.6 (12:00) -1.8 (-00:0) -0.6 8.61 (16:50) 6.11 (19:40) 0.5 0 0.4 0 0.1
06-01-2018 3.9 (00:40) -0.3 (00:00) 1.8 13.89 (10:50) 6.94 (19:30) 0.1 0 0 0 0.1
05-01-2018 6 (14:50) 3.2 (00:00) 4.6 10 (11:40) 5.83 (16:00) 3.9 0 0 0.6 3.3
04-01-2018 13 (14:40) 3.9 (09:40) 8.5 9.44 (15:10) 5.28 (15:00) 0 0 0 0 0
03-01-2018 14.5 (15:40) 5.8 (00:00) 10.2 7.5 (15:50) 4.44 (16:00) 0 0 0 0 0
02-01-2018 11.2 (11:50) 4.9 (00:00) 8 13.61 (06:40) 6.67 (06:40) 0 0 0 0 0
01-01-2018 9.4 (15:20) 0.9 (00:00) 5.1 18.06 (15:40) 9.72 (13:00) 0 0 0 0 0
31-12-2017 8 (15:10) 3.4 (00:00) 5.7 15.56 (17:30) 6.67 (17:40) 1.4 0 0 1.3 0.1
30-12-2017 12.8 (16:00) 3.5 (00:00) 8.2 8.06 (15:10) 3.33 (15:20) 0 0 0 0 0
29-12-2017 14.7 (14:20) 6.3 (00:00) 10.5 13.61 (09:30) 8.06 (09:00) 0 0 0 0 0
28-12-2017 12.3 (14:50) 1.7 (00:00) 7 18.33 (14:30) 6.67 (13:50) 0.1 0.1 0 0 0
27-12-2017 7.5 (12:40) 3 (00:00) 5.3 20.28 (05:20) 8.89 (05:20) 4.1 4.1 0 0 0
26-12-2017 5.7 (16:00) 1.5 (00:00) 3.6 11.67 (22:10) 6.67 (21:30) 2.4 0.3 0 0 2.1
25-12-2017 4.4 (00:10) 0.5 (00:00) 2.5 3.61 (14:10) 2.5 (15:50) 1.9 0 0 0.9 1
24-12-2017 9.3 (15:30) 2.3 (00:00) 5.8 3.89 (15:30) 2.5 (01:10) 0 0 0 0 0
23-12-2017 9.8 (15:20) 1.8 (00:00) 5.8 8.33 (11:50) 6.11 (11:50) 0 0 0 0 0
22-12-2017 14.1 (14:30) 4.5 (00:00) 9.3 5.83 (18:50) 3.33 (19:30) 0 0 0 0 0
21-12-2017 12.4 (14:50) 2.4 (00:00) 7.4 5 (09:50) 2.5 (08:20) 0 0 0 0 0

Gráficas

Temp. máximas Temp. mínimas Temp. medias Precipitaciones Rachas de viento máximas Velocidades máximas media en intervalos de 10 minutos

Datos horarios

Fecha y hora oficial Temperatura (ºC) Velocidad del viento (km/h) Dirección del viento Racha (km/h) Dirección de racha Precipitación (mm) Presión (hPa) Tendencia (hPa) Humedad (%)
2018-01-19 23:00:00 6.4 6 Noroeste 18 Noroeste 0 909.5 1 47
2018-01-19 22:00:00 7.5 6 Norte 21 Norte 0 909.3 1.8 44
2018-01-19 21:00:00 8.3 12 Norte 22 Noroeste 0 908.9 2.1 41
2018-01-19 20:00:00 7 7 Noroeste 17 Noroeste 0 908.5 2.4 47
2018-01-19 19:00:00 7.9 8 Noroeste 15 Noroeste 0 907.5 1.2 46
2018-01-19 18:00:00 10.5 0 Calma 20 Sudoeste 0 906.8 1.3 39
2018-01-19 17:00:00 11.3 6 Sudeste 12 Sur 0 906.1 -0.2 42
2018-01-19 16:00:00 12.2 3 Sur 18 Sur 0 906.3 0 41
2018-01-19 15:00:00 11.5 12 Sur 21 Nordeste 0 905.5 -1 42
2018-01-19 14:00:00 12.8 4 Oeste 12 Sur 0 906.3 0.1 35
2018-01-19 13:00:00 10.8 8 Sur 22 Sudeste 0 906.3 0.6 44
2018-01-19 12:00:00 9.2 8 Sur 28 Sur 0 906.5 1.3 45
2018-01-19 11:00:00 9.2 2 Sudoeste 16 Este 0 906.2 1 46
2018-01-19 10:00:00 7.7 4 Sudeste 20 Sudeste 0 905.7 0.6 47
2018-01-19 09:00:00 5.4 7 Este 10 Este 0 905.2 0.5 49
2018-01-19 08:00:00 6.1 0 Calma 6 Sudoeste 0 905.2 0.4 48
2018-01-19 07:00:00 5.4 5 Noroeste 9 Noroeste 0 905.1 0 48
2018-01-19 06:00:00 5.1 6 Noroeste 13 Noroeste 0 904.7 -0.6 49
2018-01-19 05:00:00 7 5 Noroeste 8 Noroeste 0 904.8 -0.7 45
2018-01-19 04:00:00 6.8 6 Nordeste 11 Nordeste 0 905.1 -1 46
2018-01-19 03:00:00 6.6 4 Nordeste 8 Este 0 905.3 -0.9 48
2018-01-19 02:00:00 6.7 6 Norte 12 Norte 0 905.5 -1.1 46
2018-01-19 01:00:00 7.2 8 Norte 11 Norte 0 906.1 -0.6 47
2018-01-19 00:00:00 7 5 Norte 14 Norte 0 906.2 -0.4 49
2018-01-18 23:00:00 6.8 5 Norte 8 Norte 0 906.6 0.3 49
2018-01-18 22:00:00 6.3 4 Norte 7 Nordeste 0 906.7 0.7 50
2018-01-18 21:00:00 6.5 4 Sur 10 Sur 0 906.6 0.4 48
2018-01-18 20:00:00 7.5 4 Sudeste 5 Sudeste 0 906.3 -0.1 43
2018-01-18 19:00:00 8.3 2 Sudeste 5 Sur 0 906 -0.9 42
2018-01-18 18:00:00 10.6 0 Calma 7 Sur 0 906.2 -0.9 39
2018-01-18 17:00:00 11.7 5 Sur 10 Sur 0 906.4 -1.3 37
2018-01-18 16:00:00 11.9 6 Sur 11 Sur 0 906.9 -2 39
2018-01-18 15:00:00 11.8 5 Sur 12 Sur 0 907.1 -2.3 38
2018-01-18 14:00:00 10.8 5 Sur 12 Sur 0 907.7 -1.9 39
2018-01-18 13:00:00 10 5 Sur 35 Sur 0 908.9 -0.6 47
2018-01-18 12:00:00 8.6 8 Sur 30 Sur 0 909.4 0.2 52
2018-01-18 11:00:00 6.9 3 Noroeste 15 Este 0 909.6 0.6 55
2018-01-18 10:00:00 5.6 6 Sudeste 35 Sur 0 909.5 0.6 59
2018-01-18 09:00:00 4.5 3 Noroeste 10 Noroeste 0 909.2 0.3 60
2018-01-18 08:00:00 3.2 4 Norte 11 Noroeste 0 909 -0.4 68
2018-01-18 07:00:00 2.3 6 Noroeste 8 Noroeste 0 908.9 -0.7 71
2018-01-18 06:00:00 1.8 4 Noroeste 9 Norte 0 908.9 -1.2 71
2018-01-18 05:00:00 2.3 0 Calma 10 Noroeste 0 909.4 -0.9 71
2018-01-18 04:00:00 2.8 5 Noroeste 11 Noroeste 0 909.6 -1.3 70
2018-01-18 03:00:00 3 3 Nordeste 4 Nordeste 0 910.1 -0.7 68
2018-01-18 02:00:00 3.5 3 Noroeste 7 Oeste 0 910.3 -0.3 67
2018-01-18 01:00:00 4.2 5 Oeste 8 Oeste 0 910.9 0.3 64
2018-01-18 00:00:00 4.5 3 Sur 9 Sur 0 910.8 0.2 61
2018-01-17 23:00:00 5.6 3 Nordeste 8 Norte 0 910.6 0.1 59
2018-01-17 22:00:00 5.8 5 Noroeste 7 Noroeste 0 910.6 0.2 55
2018-01-17 21:00:00 6.2 0 Calma 7 Norte 0 910.6 0.4 53
2018-01-17 20:00:00 7 5 Noroeste 10 Este 0 910.5 0.4 52
2018-01-17 19:00:00 6.9 6 Nordeste 10 Este 0 910.4 0.5 54
2018-01-17 18:00:00 9.6 3 Sur 13 Sudeste 0 910.2 0.5 52
2018-01-17 17:00:00 10.5 8 Sudeste 15 Sudeste 0 910.1 0 52
2018-01-17 16:00:00 10.6 8 Sudeste 17 Este 0 909.9 -0.5 53
2018-01-17 15:00:00 10.4 7 Sudeste 13 Sur 0 909.7 -1.1 55
2018-01-17 14:00:00 9.4 9 Sudeste 18 Sudeste 0 910.1 -0.3 62
2018-01-17 13:00:00 9.1 8 Sur 20 Sudeste 0 910.4 0.5 64
2018-01-17 12:00:00 8.7 8 Sudoeste 17 Sudeste 0 910.8 1.3 69
2018-01-17 11:00:00 7.5 8 Sur 20 Este 0 910.4 1.4 75
2018-01-17 10:00:00 5.8 6 Este 20 Sudeste 0 909.9 1.4 80
2018-01-17 09:00:00 4 8 Este 15 Este 0 909.5 1.2 87
2018-01-17 08:00:00 4.6 10 Este 16 Este 0 909 0.3 79
2018-01-17 07:00:00 3.9 8 Este 17 Sudeste 0 908.5 -0.4 85
2018-01-17 06:00:00 3.7 9 Sudeste 14 Sudeste 0 908.3 -0.7 88
2018-01-17 05:00:00 4.7 5 Sudeste 9 Sudeste 0 908.7 -1 82
2018-01-17 04:00:00 4.7 7 Nordeste 14 Este 0 908.9 -1.4 82
2018-01-17 03:00:00 4.5 6 Este 13 Sudeste 0 909 -1.6 88
2018-01-17 02:00:00 4.2 10 Este 14 Sudeste 0 909.7 -0.9 88
2018-01-17 01:00:00 4.9 7 Sudeste 13 Este 0 910.3 -0.3 87
2018-01-17 00:00:00 4.6 9 Este 13 Este 0 910.6 0.5 85
2018-01-16 23:00:00 5.4 6 Este 11 Sudeste 0 910.6 0.4 81
2018-01-16 22:00:00 5.6 3 Este 8 Nordeste 0 910.6 0.4 81
2018-01-16 21:00:00 5.7 0 Calma 7 Sudeste 0 910.1 -0.2 79
2018-01-16 20:00:00 6.2 5 Nordeste 7 Nordeste 0 910.2 0 79
2018-01-16 19:00:00 6.1 6 Este 12 Sudeste 0 910.2 -0.2 75
2018-01-16 18:00:00 7.8 7 Este 21 Sur 0 910.3 -0.3 69
2018-01-16 17:00:00 9.5 7 Este 25 Sudeste 0 910.2 -1.1 66
2018-01-16 16:00:00 9.2 8 Sudeste 14 Sudeste 0 910.4 -1.8 64
2018-01-16 15:00:00 8.5 7 Sudeste 23 Sur 0 910.6 -2.3 66
2018-01-16 14:00:00 8.5 7 Sur 25 Este 0 911.3 -1.4 70
2018-01-16 13:00:00 6.3 6 Sudeste 27 Este 0 912.2 0.1 75
2018-01-16 12:00:00 5.6 6 Sudeste 20 Este 0 912.9 1.4 75
2018-01-16 11:00:00 4.5 7 Sudeste 21 Sudeste 0 912.7 1.5 76
2018-01-16 10:00:00 4.1 5 Sudeste 16 Sudeste 0 912.1 1.4 78
2018-01-16 09:00:00 1 6 Este 12 Sudeste 0 911.5 0.8 85
2018-01-16 08:00:00 0.7 6 Este 10 Este 0 911.2 0.6 85
2018-01-16 07:00:00 0.6 5 Nordeste 13 Norte 0 910.7 0.1 87
2018-01-16 06:00:00 0.6 2 Sudoeste 7 Noroeste 0 910.7 0.1 83
2018-01-16 05:00:00 0.7 3 Este 10 Este 0 910.6 -0.3 83
2018-01-16 04:00:00 0.8 6 Este 10 Este 0 910.6 -0.6 79
2018-01-16 03:00:00 2 4 Sudeste 10 Este 0 910.6 -1.1 73
2018-01-16 02:00:00 1.4 6 Este 12 Este 0 910.9 -0.5 81
2018-01-16 01:00:00 1.6 6 Este 10 Sudeste 0 911.2 0.1 76
2018-01-16 00:00:00 2.1 4 Este 8 Sudeste 0 911.7 0.7 70
2018-01-15 23:00:00 2.4 4 Oeste 8 Sudoeste 0 911.4 0.9 63
2018-01-15 22:00:00 2.2 5 Noroeste 8 Noroeste 0 911.1 0.7 72
2018-01-15 21:00:00 1.8 0 Calma 9 Nordeste 0 911 1.1 83
2018-01-15 20:00:00 2.1 6 Sudeste 15 Sudoeste 0 910.5 0.9 77
2018-01-15 19:00:00 3.1 10 Sudoeste 16 Sudoeste 0 910.4 1.1 71
2018-01-15 18:00:00 4.4 5 Sur 17 Sur 0 909.9 0.3 66
2018-01-15 17:00:00 4.7 9 Sur 17 Sur 0 909.6 -0.1 64
2018-01-15 16:00:00 5.3 7 Sur 15 Sur 0 909.3 -0.8 59
2018-01-15 15:00:00 5.2 8 Sur 26 Sudeste 0 909.6 -1.1 62
2018-01-15 14:00:00 4.7 7 Sur 32 Sudeste 0 909.7 -0.7 64
2018-01-15 13:00:00 3.7 5 Sur 22 Sudeste 0 910.1 0.4 67
2018-01-15 12:00:00 2.8 7 Sur 19 Sudeste 0 910.7 1.8 69
2018-01-15 11:00:00 2.6 5 Sur 11 Sur 0 910.4 2.1 67
2018-01-15 10:00:00 0.6 3 Noroeste 6 Sudoeste 0 909.7 2 78
2018-01-15 09:00:00 -1.1 4 Sudoeste 7 Oeste 0 908.9 1.5 85
2018-01-15 08:00:00 -1.4 4 Oeste 7 Oeste 0 908.3 1.1 83
2018-01-15 07:00:00 -0.9 3 Noroeste 6 Oeste 0 907.7 1.1 75
2018-01-15 06:00:00 -0.3 4 Oeste 8 Oeste 0 907.4 1 72
2018-01-15 05:00:00 0.4 4 Norte 8 Noroeste 0 907.2 1.1 70
2018-01-15 04:00:00 0.4 6 Noroeste 12 Noroeste 0 906.6 0 70
2018-01-15 03:00:00 -1 3 Noroeste 9 Oeste 0 906.4 -0.1 85
2018-01-15 02:00:00 -0.8 4 Noroeste 11 Norte 0 906.1 0.1 83
2018-01-15 01:00:00 -1 3 Noroeste 10 Noroeste 0 906.6 1.3 91
2018-01-15 00:00:00 0.3 7 Noroeste 13 Noroeste 0 906.5 1.4 89
2018-01-14 23:00:00 -0.1 7 Noroeste 12 Noroeste 0 906 1.6 97
2018-01-14 22:00:00 -0.4 6 Noroeste 10 Noroeste 0 905.3 2 99
2018-01-14 21:00:00 -0.1 6 Noroeste 10 Noroeste 0 905.1 2 97
2018-01-14 20:00:00 0.1 2 Norte 8 Noroeste 0 904.4 1.8 96
2018-01-14 19:00:00 0.9 4 Este 6 Sudeste 0 903.3 1.2 92
2018-01-14 18:00:00 1.6 0 Calma 6 Norte 0 903.1 0.8 85
2018-01-14 17:00:00 1.4 3 Nordeste 7 Nordeste 0 902.6 0.2 91
2018-01-14 16:00:00 1 3 Noroeste 9 Norte 0 902.1 -0.5 97
2018-01-14 15:00:00 0.8 4 Sudeste 15 Este 0 902.3 -0.7 99
2018-01-14 14:00:00 0.5 8 Sudeste 13 Nordeste 0.1 902.4 -0.5 99
2018-01-14 13:00:00 0.8 4 Nordeste 12 Nordeste 2.5 902.6 0.4 99
2018-01-14 12:00:00 1.2 0 Calma 8 Nordeste 2.3 903 1.1 99
2018-01-14 11:00:00 -0.7 0 Calma 13 Este 0 902.9 1.3 99
2018-01-14 10:00:00 -1.7 2 Este 12 Este 0 902.2 0.8 99
2018-01-14 09:00:00 -2.2 0 Calma -- -- 0 901.9 0.5 99
2018-01-14 08:00:00 -2.2 0 Calma -- -- 0 901.6 0 99
2018-01-14 07:00:00 -2 0 Calma -- -- 0 901.4 -0.5 99
2018-01-14 06:00:00 -2.6 0 Calma -- -- 0 901.4 -0.2 99
2018-01-14 05:00:00 -2.3 0 Calma -- -- 0 901.6 -0.2 99
2018-01-14 04:00:00 -2.3 0 Calma -- -- 0 901.9 -0.2 99
2018-01-14 03:00:00 -2 0 Calma -- -- 0 901.6 -0.6 99
2018-01-14 02:00:00 -1.6 0 Calma -- -- 0 901.8 0 99
2018-01-14 01:00:00 -1.1 0 Calma -- -- 0 902.1 0.5 99
2018-01-14 00:00:00 -1.7 0 Calma -- -- 0 902.2 0.8 99
2018-01-13 23:00:00 -2.1 0 Calma 5 Este 0 901.8 0.8 99
2018-01-13 22:00:00 -1.7 5 Este 13 Sudeste 0 901.6 0.6 99
2018-01-13 21:00:00 -1.5 6 Sudeste 9 Este 0 901.4 0.5 99
2018-01-13 20:00:00 -1 0 Calma 5 Este 0.1 901 0.2 99
2018-01-13 19:00:00 -1 2 Este 6 Sur 0.1 901 0.6 99
2018-01-13 18:00:00 -1 0 Calma 11 Sudeste 0.2 900.9 0.1 99
2018-01-13 17:00:00 -0.3 3 Sudoeste 7 Sur 0.2 900.8 -0.7 99
2018-01-13 16:00:00 -0.4 4 Este 5 Sudeste 0.2 900.4 -1.6 99
2018-01-13 15:00:00 -0.1 0 Calma 10 Oeste 0.5 900.8 -2.2 99
2018-01-13 14:00:00 -0.1 5 Oeste 11 Sudoeste 0.2 901.5 -1.4 96
2018-01-13 13:00:00 0.8 4 Noroeste 10 Oeste 0.2 902 -1.1 89
2018-01-13 12:00:00 1.8 4 Este 11 Sur 0 903 0.1 85
2018-01-13 11:00:00 1.7 6 Sudeste 9 Sudeste 0 902.9 0 83
2018-01-13 10:00:00 0 0 Calma 4 Sudeste 0 903.1 0 89
2018-01-13 09:00:00 -0.1 2 Este 4 Este 0 902.9 -0.5 90
2018-01-13 08:00:00 -0.1 3 Norte 6 Norte 0 902.9 -1.3 90
2018-01-13 07:00:00 -0.2 2 Noroeste 5 Noroeste 0 903.1 -1.6 90
2018-01-13 06:00:00 0 0 Calma 4 Este 0 903.4 -1.6 89
2018-01-13 05:00:00 0.1 0 Calma 5 Este 0 904.2 -1.5 88
2018-01-13 04:00:00 0.6 0 Calma 6 Este 0 904.7 -1.4 84
2018-01-13 03:00:00 0.7 0 Calma 5 Nordeste 0 905 -1.6 84
2018-01-13 02:00:00 1 4 Sudeste 10 Sudeste 0 905.7 -1 79
2018-01-13 01:00:00 1.1 3 Este 5 Este 0 906.1 -1 76
2018-01-13 00:00:00 1.5 3 Sudeste 6 Norte 0 906.6 -0.3 75
2018-01-12 23:00:00 1.6 2 Norte 7 Noroeste 0 906.7 -0.3 73
2018-01-12 22:00:00 2.2 3 Oeste 9 Este 0 907.1 -0.5 71
2018-01-12 21:00:00 2.4 4 Nordeste 8 Este 0 906.9 -0.6 70
2018-01-12 20:00:00 2.9 4 Sur 8 Sur 0 907 -0.5 67
2018-01-12 19:00:00 3.2 3 Sur 7 Este 0 907.6 0.1 69
2018-01-12 18:00:00 3.4 5 Sudeste 9 Sudeste 0 907.5 -0.1 66
2018-01-12 17:00:00 4.4 6 Sudeste 13 Sudeste 0 907.5 -0.4 62
2018-01-12 16:00:00 5.2 6 Sur 13 Sur 0 907.5 -1.3 57
2018-01-12 15:00:00 5.9 8 Sur 13 Sudeste 0 907.6 -2.1 53
2018-01-12 14:00:00 5.6 6 Sur 13 Sur 0 907.9 -2 55
2018-01-12 13:00:00 5.5 6 Sur 17 Sur 0 908.8 -0.7 53
2018-01-12 12:00:00 5.8 7 Sur 13 Sudoeste 0 909.7 0.6 52
2018-01-12 11:00:00 4.4 3 Sur 18 Sudeste 0 909.9 0.9 58
2018-01-12 10:00:00 1.8 0 Calma 6 Oeste 0 909.5 1 69
2018-01-12 09:00:00 0 0 Calma 8 Noroeste 0 909.1 0.7 70
2018-01-12 08:00:00 0 6 Noroeste 8 Noroeste 0 909 0.5 69
2018-01-12 07:00:00 0.2 5 Este 10 Este 0 908.5 -0.2 68
2018-01-12 06:00:00 0.3 6 Nordeste 12 Este 0 908.4 0 69
2018-01-12 05:00:00 0 6 Nordeste 12 Este 0 908.5 0 72
2018-01-12 04:00:00 0 7 Oeste 13 Oeste 0 908.7 0 71
2018-01-12 03:00:00 0.5 7 Oeste 20 Oeste 0 908.4 -0.2 68
2018-01-12 02:00:00 1.6 11 Sudoeste 20 Oeste 0 908.5 0.5 63
2018-01-12 01:00:00 1.6 5 Sur 14 Oeste 0 908.7 1 62
2018-01-12 00:00:00 1.6 9 Sur 17 Sur 0 908.6 1 61
2018-01-11 23:00:00 1.8 5 Sudeste 18 Sudoeste 0 908 0.6 58
2018-01-11 22:00:00 2.3 4 Sudoeste 20 Sur 0 907.7 0.9 55
2018-01-11 21:00:00 2.6 5 Sur 34 Norte 0 907.6 1.2 53
2018-01-11 20:00:00 3.9 9 Norte 35 Noroeste 0 907.4 1.9 44
2018-01-11 19:00:00 3 8 Noroeste 22 Oeste 0 906.8 1.8 45
2018-01-11 18:00:00 3.7 6 Norte 27 Oeste 0 906.4 1.7 39
2018-01-11 17:00:00 4.8 13 Sudoeste 31 Sudoeste 0 905.5 1.2 37
2018-01-11 16:00:00 6 7 Oeste 39 Noroeste 0 905 -1 33
2018-01-11 15:00:00 6 14 Noroeste 80 Noroeste 0 904.7 -1.6 31
2018-01-11 14:00:00 5.1 18 Noroeste 49 Noroeste 0 904.3 -1.9 42
2018-01-11 13:00:00 3.5 8 Sudoeste 36 Oeste 0 906 0.3 55
2018-01-11 12:00:00 3.7 16 Oeste 32 Oeste 0.1 906.3 1.5 57
2018-01-11 11:00:00 1.4 16 Noroeste 35 Noroeste 0.4 906.2 1.7 73
2018-01-11 10:00:00 1.3 14 Noroeste 50 Noroeste 0.2 905.7 1.9 73
2018-01-11 09:00:00 2 15 Oeste 37 Noroeste 0 904.8 0.8 63
2018-01-11 08:00:00 2 15 Oeste 41 Oeste 0.1 904.5 0.7 66
2018-01-11 07:00:00 1.4 16 Oeste 29 Oeste 0 903.8 -0.1 80
2018-01-11 06:00:00 1.7 18 Oeste 34 Oeste 0.1 904 -0.1 84
2018-01-11 05:00:00 1.4 18 Oeste 42 Oeste 0 903.8 -0.7 78
2018-01-11 04:00:00 2 17 Oeste 42 Oeste 0 903.9 -1 67
2018-01-11 03:00:00 1.7 19 Oeste 44 Oeste 0 904.1 -0.6 66
2018-01-11 02:00:00 1.4 9 Oeste 27 Oeste 0 904.5 0.2 65
2018-01-11 01:00:00 1.7 10 Oeste 27 Sudoeste 0 904.9 1 63
2018-01-11 00:00:00 2 13 Oeste 28 Oeste 0 904.7 1.5 54
2018-01-10 23:00:00 2.1 10 Oeste 40 Oeste 0 904.3 1.6 51
2018-01-10 22:00:00 2.3 20 Oeste 50 Oeste 0 903.9 1.5 52
2018-01-10 21:00:00 2.9 13 Oeste 39 Oeste 0 903.2 1 61
2018-01-10 20:00:00 3.3 15 Sudoeste 44 Oeste 0 902.7 0.7 67
2018-01-10 19:00:00 2.9 22 Oeste 44 Oeste 0.1 902.4 0.7 99
2018-01-10 18:00:00 2.7 7 Oeste 21 Sudoeste 0.1 902.2 -0.3 99
2018-01-10 17:00:00 2.6 12 Sudoeste 24 Sudoeste 0.1 902 -0.6 99
2018-01-10 16:00:00 2.7 13 Sudoeste 26 Sudoeste 0.4 901.7 -1.6 99
2018-01-10 15:00:00 2.1 12 Sudoeste 20 Sudoeste 0 902.5 -1.1 99
2018-01-10 14:00:00 1.6 9 Sudoeste 26 Sudoeste 0 902.6 -0.9 99
2018-01-10 13:00:00 1.3 12 Sudoeste 25 Sudoeste 0 903.3 0.2 99
2018-01-10 12:00:00 0.6 10 Sur 19 Sur 0 903.6 0.9 99
2018-01-10 11:00:00 0.3 10 Sudoeste 18 Sudoeste 1.6 903.5 1 99
2018-01-10 10:00:00 -0.2 0 Calma 14 Sur 4.9 903.1 1 99
2018-01-10 09:00:00 -0.6 7 Sur 11 Sur 0 902.7 0.8 99
2018-01-10 08:00:00 -0.7 5 Sur 9 Sudoeste 0 902.5 1.1 99
2018-01-10 07:00:00 -0.3 4 Sudoeste 10 Oeste 0 902.1 0.6 99
2018-01-10 06:00:00 0 3 Oeste 8 Sudoeste 0 901.9 0.3 99
2018-01-10 05:00:00 0 0 Calma 5 Este 0 901.4 -0.5 99
2018-01-10 04:00:00 0.1 0 Calma 8 Nordeste 0 901.5 -0.7 99
2018-01-10 03:00:00 0 3 Norte 6 Norte 0 901.6 -0.7 99
2018-01-10 02:00:00 -0.2 0 Calma 6 Nordeste 0 901.9 -0.5 99
2018-01-10 01:00:00 -0.4 0 Calma 5 Este 0 902.2 -0.3 99
2018-01-10 00:00:00 -0.4 0 Calma 3 Sur 0 902.3 -0.2 99
2018-01-09 23:00:00 -0.4 2 Sudeste 8 Sur 0 902.4 0 99
2018-01-09 22:00:00 -0.7 7 Sur 9 Sudeste 0 902.5 0.2 99
2018-01-09 21:00:00 -0.6 5 Sur 8 Sur 0 902.5 0.4 99
2018-01-09 20:00:00 -0.7 2 Sur 5 Sur 0 902.4 0.5 99
2018-01-09 19:00:00 -0.7 2 Sudoeste 8 Sudoeste 0 902.3 0.6 99
2018-01-09 18:00:00 -0.6 6 Sudoeste 9 Sudoeste 0 902.1 0.5 99
2018-01-09 17:00:00 -0.5 6 Sudoeste 12 Sudoeste 0 901.9 -0.1 99
2018-01-09 16:00:00 0 5 Sudoeste 10 Sudoeste 0 901.7 -0.6 99
2018-01-09 15:00:00 -0.7 0 Calma 11 Sur 0 901.6 -0.8 99
2018-01-09 14:00:00 -1 8 Sudeste 12 Sur 0 902 -0.4 99
2018-01-09 13:00:00 -1.4 5 Sur 10 Sur 0 902.3 0.8 99
2018-01-09 12:00:00 -1.8 6 Sudeste 26 Sudeste 0 902.4 1.3 98
2018-01-09 11:00:00 -2 2 Sur 13 Sudeste 0 902.4 1.4 98
2018-01-09 10:00:00 -2.5 0 Calma 6 Sudeste 0 901.5 0.8 98
2018-01-09 09:00:00 -2.8 0 Calma 5 Norte 0 901.1 1.1 98
2018-01-09 08:00:00 -2.8 3 Este 5 Este 0 901 1.4 97
2018-01-09 07:00:00 -2.8 4 Este 9 Este 0 900.7 1 94
2018-01-09 06:00:00 -2.4 5 Sudeste 9 Sudeste 0 900 0.2 90
2018-01-09 05:00:00 -2 4 Sudeste 5 Sudeste 0 899.6 0.5 84
2018-01-09 04:00:00 -1.8 0 Calma 6 Este 0 899.7 0.1 79
2018-01-09 03:00:00 -1.7 3 Oeste 8 Oeste 0 899.8 0 78
2018-01-09 02:00:00 -0.8 4 Oeste 8 Noroeste 0 899.1 -0.2 76
2018-01-09 01:00:00 -0.6 5 Oeste 8 Oeste 0 899.6 0.7 76
2018-01-09 00:00:00 -0.7 3 Oeste 9 Noroeste 0 899.8 0.8 76
2018-01-08 23:00:00 -0.3 4 Noroeste 8 Noroeste 0 899.3 0.5 74
2018-01-08 22:00:00 0.2 7 Noroeste 9 Noroeste 0 898.9 0.8 72
2018-01-08 21:00:00 0.3 3 Oeste 9 Noroeste 0 899 1.7 70
2018-01-08 20:00:00 1 0 Calma 6 Nordeste 0 898.8 1.7 63
2018-01-08 19:00:00 1.8 2 Este 8 Este 0 898.1 1.4 60
2018-01-08 18:00:00 3.2 4 Nordeste 6 Este 0 897.3 1 55
2018-01-08 17:00:00 4.6 2 Este 10 Este 0 897.1 1 49
2018-01-08 16:00:00 4.6 5 Este 10 Este 0 896.7 0.4 49
2018-01-08 15:00:00 4.4 3 Este 13 Nordeste 0 896.3 -0.1 53
2018-01-08 14:00:00 3.6 8 Nordeste 14 Nordeste 0 896.1 -0.4 60
2018-01-08 13:00:00 2.9 7 Nordeste 14 Nordeste 0 896.3 0.4 64
2018-01-08 12:00:00 2.3 6 Nordeste 13 Nordeste 0 896.4 1.2 63
2018-01-08 11:00:00 1.7 6 Nordeste 14 Nordeste 0 896.5 1.7 65
2018-01-08 10:00:00 0.7 6 Nordeste 17 Norte 0 895.9 1.5 68
2018-01-08 09:00:00 -0.7 8 Nordeste 17 Nordeste 0 895.2 0.9 71
2018-01-08 08:00:00 -0.8 8 Nordeste 14 Nordeste 0 894.8 0.7 71
2018-01-08 07:00:00 -1 4 Nordeste 19 Norte 0 894.4 0.9 72
2018-01-08 06:00:00 -0.7 11 Norte 19 Norte 0 894.3 1.5 75
2018-01-08 05:00:00 -1.1 5 Nordeste 18 Nordeste 0 894.1 1.6 81
2018-01-08 04:00:00 -1.9 8 Nordeste 13 Norte 0 893.5 1.3 84
2018-01-08 03:00:00 -1.1 5 Nordeste 15 Nordeste 0 892.8 0.5 90
2018-01-08 02:00:00 -1.9 5 Nordeste 12 Norte 0 892.5 0.5 98
2018-01-08 01:00:00 -1.6 8 Norte 16 Norte 0 892.2 0.6 99
2018-01-08 00:00:00 -1.6 6 Norte 12 Norte 0 892.3 1.1 99
2018-01-07 23:00:00 -1.7 5 Nordeste 19 Nordeste 0 892 1.3 99
2018-01-07 22:00:00 -1 8 Este 21 Este 0 891.6 1.7 99
2018-01-07 21:00:00 -0.6 16 Este 27 Este 0.1 891.2 2.3 99
2018-01-07 20:00:00 -0.7 18 Este 30 Este 0 890.7 2.9 99
2018-01-07 19:00:00 -0.7 12 Este 21 Este 0 889.9 2.8 99
2018-01-07 18:00:00 -0.8 14 Este 25 Este 0 888.9 2.7 99
2018-01-07 17:00:00 -0.8 19 Este 31 Este 0 887.8 1.7 99
2018-01-07 16:00:00 -0.4 12 Este 23 Este 0 887.1 1.3 99
2018-01-07 15:00:00 -0.1 18 Este 24 Este 0 886.2 0.7 99
2018-01-07 14:00:00 0 14 Este 24 Este 0 886.1 1.1 99
2018-01-07 13:00:00 -0.1 16 Este 27 Este 0 885.8 1.3 99
2018-01-07 12:00:00 0.4 17 Este 26 Este 0 885.5 2.1 99
2018-01-07 11:00:00 -0.1 14 Nordeste 27 Este 0.4 885 1.7 99
2018-01-07 10:00:00 -0.3 10 Nordeste 22 Nordeste 0 884.5 1.9 99
2018-01-07 09:00:00 -0.6 6 Nordeste 12 Nordeste 0 883.4 1.2 99
2018-01-07 08:00:00 -0.5 2 Nordeste 10 Este 0 883.3 0.8 97
2018-01-07 07:00:00 -0.4 0 Calma 12 Este 0 882.6 -0.4 94
2018-01-07 06:00:00 -0.5 5 Nordeste 17 Nordeste 0 882.2 -0.3 94
2018-01-07 05:00:00 -0.5 6 Norte 12 Nordeste 0 882.5 -0.1 92
2018-01-07 04:00:00 -0.2 4 Nordeste 17 Nordeste 0 883 0.4 86
2018-01-07 03:00:00 0.3 6 Norte 16 Norte 0 882.5 -0.3 81
2018-01-07 02:00:00 -0.3 8 Norte 18 Norte 0 882.6 -0.3 91
2018-01-07 01:00:00 -0.5 9 Norte 17 Norte 0 882.6 0 94
2018-01-07 00:00:00 0 4 Noroeste 19 Noroeste 0 882.8 0.4 86
2018-01-06 23:00:00 0 4 Oeste 32 Norte 0 882.9 0.5 88
2018-01-06 22:00:00 1.3 17 Noroeste 32 Norte 0 882.6 0.3 63
2018-01-06 21:00:00 1.2 8 Noroeste 31 Noroeste 0 882.4 0 69
2018-01-06 20:00:00 1 14 Noroeste 45 Norte 0.1 882.4 0.1 69
2018-01-06 19:00:00 0.5 21 Noroeste 45 Norte 0 882.3 0.1 75
2018-01-06 18:00:00 0.2 17 Noroeste 33 Noroeste 0 882.4 0.1 88
2018-01-06 17:00:00 0.1 18 Norte 38 Nordeste 0 882.3 -0.1 96
2018-01-06 16:00:00 0 14 Nordeste 33 Nordeste 0 882.2 -1.3 97
2018-01-06 15:00:00 0.1 15 Norte 36 Norte 0 882.3 -2 97
2018-01-06 14:00:00 0.2 18 Norte 34 Norte 0 882.4 -2.6 96
2018-01-06 13:00:00 0.8 18 Norte 37 Norte 0 883.5 -1.3 94
2018-01-06 12:00:00 0.5 17 Norte 30 Norte 0 884.3 -0.9 93
2018-01-06 11:00:00 0.6 15 Norte 50 Norte 0 885 -0.3 96
2018-01-06 10:00:00 0.6 12 Norte 30 Norte 0 884.8 -0.6 97
2018-01-06 09:00:00 0.1 12 Norte 25 Nordeste 0 885.2 -0.5 95
2018-01-06 08:00:00 1.8 6 Noroeste 29 Norte 0 885.3 -1.1 83
2018-01-06 07:00:00 2.3 10 Nordeste 22 Nordeste 0 885.4 -1.5 72
2018-01-06 06:00:00 2.6 12 Nordeste 24 Nordeste 0 885.7 -1.8 77
2018-01-06 05:00:00 2.5 4 Sur 18 Nordeste 0 886.4 -1.6 88
2018-01-06 04:00:00 2.4 6 Nordeste 19 Nordeste 0 886.9 -2.2 90
2018-01-06 03:00:00 2.6 9 Nordeste 24 Nordeste 0 887.5 -2.4 91
2018-01-06 02:00:00 2.5 9 Nordeste 30 Nordeste 0 888 -2.1 99
2018-01-06 01:00:00 3.1 8 Nordeste 22 Este 0 889.1 -1.5 99
2018-01-06 00:00:00 3.3 0 Calma 10 Sudoeste 0 889.9 -1.5 99
2018-01-05 23:00:00 3.4 5 Oeste 21 Oeste 0 890.1 -2.2 99
2018-01-05 22:00:00 5.1 4 Sudoeste 16 Sur 0 890.6 -2.7 99
2018-01-05 21:00:00 5.4 7 Sudoeste 24 Sudoeste 0.8 891.4 -2.2 99
2018-01-05 20:00:00 5.4 10 Sudoeste 30 Sudoeste 2 892.3 -2 99
2018-01-05 19:00:00 5.4 13 Sudoeste 27 Sudoeste 0.5 893.3 -1.6 99
2018-01-05 18:00:00 5.5 13 Sudoeste 25 Sudoeste 0.6 893.6 -1.8 99
2018-01-05 17:00:00 5.6 14 Sudoeste 30 Sudoeste 0 894.3 -2.2 99
2018-01-05 16:00:00 5.6 21 Sudoeste 33 Sudoeste 0 894.9 -2.7 99
2018-01-05 15:00:00 5.9 17 Sudoeste 31 Sudoeste 0 895.4 -3.4 95
2018-01-05 14:00:00 5.7 20 Sudoeste 35 Sudoeste 0 896.5 -3.1 96
2018-01-05 13:00:00 5.8 18 Sudoeste 29 Sudoeste 0 897.6 -2.1 99
2018-01-05 12:00:00 5.3 15 Sudoeste 36 Sudoeste 0 898.8 -1.1 99
2018-01-05 11:00:00 5.1 20 Sudoeste 30 Sudoeste 0 899.6 -0.8 99
2018-01-05 10:00:00 5 18 Sudoeste 30 Sudoeste 0 899.7 -0.9 99
2018-01-05 09:00:00 5 9 Sudoeste 20 Sudoeste 0 899.9 -1.4 99
2018-01-05 08:00:00 4.8 10 Sudoeste 16 Sudoeste 0 900.4 -1.4 99
2018-01-05 07:00:00 4.9 8 Sudoeste 13 Sudoeste 0 900.6 -2.1 99
2018-01-05 06:00:00 4.9 9 Sudoeste 18 Sudoeste 0 901.3 -2.6 99
2018-01-05 05:00:00 5.1 11 Sudoeste 21 Sudoeste 0 901.8 -2.8 99
2018-01-05 04:00:00 5.6 11 Sudoeste 19 Sudoeste 0 902.7 -2.9 99
2018-01-05 03:00:00 5 8 Oeste 19 Sudoeste 0 903.9 -2.6 99
2018-01-05 02:00:00 3.8 5 Este 15 Sudoeste 0 904.6 -2.4 99
2018-01-05 01:00:00 4.7 11 Sudoeste 17 Sudoeste 0 905.6 -1.8 98
2018-01-05 00:00:00 5.1 4 Sur 15 Sudoeste 0 906.5 -1.4 87
2018-01-04 23:00:00 6 8 Sur 14 Sur 0 907 -1.3 88
2018-01-04 22:00:00 6.2 8 Sudeste 16 Sudeste 0 907.4 -0.7 87
2018-01-04 21:00:00 6.8 3 Sudeste 10 Este 0 907.9 -0.7 81
2018-01-04 20:00:00 7.7 6 Noroeste 13 Noroeste 0 908.3 0.1 72
2018-01-04 19:00:00 8 6 Oeste 14 Norte 0 908.1 -0.7 77
2018-01-04 18:00:00 9.4 7 Norte 24 Sudoeste 0 908.6 -0.7 73
2018-01-04 17:00:00 11.4 13 Sudoeste 28 Sudoeste 0 908.2 -2 53
2018-01-04 16:00:00 11.2 14 Sudoeste 34 Sudoeste 0 908.8 -2.4 66
2018-01-04 15:00:00 12.3 19 Sudoeste 33 Sudoeste 0 909.3 -2.8 42
2018-01-04 14:00:00 12 11 Sudoeste 26 Sudoeste 0 910.2 -2 55
2018-01-04 13:00:00 8.6 7 Sur 12 Sur 0 911.2 -0.9 99
2018-01-04 12:00:00 6.6 6 Sudeste 12 Sudeste 0 912.1 0.1 99
2018-01-04 11:00:00 5.5 8 Sudeste 12 Sudeste 0 912.2 0.1 99
2018-01-04 10:00:00 4 6 Nordeste 13 Sudeste 0 912.1 -0.2 99
2018-01-04 09:00:00 5.9 3 Sur 11 Oeste 0 912 -0.5 99
2018-01-04 08:00:00 6.5 5 Oeste 10 Oeste 0 912.1 -0.8 99
2018-01-04 07:00:00 5.6 5 Este 9 Este 0 912.3 -0.9 99
2018-01-04 06:00:00 5.5 5 Este 13 Sudeste 0 912.5 -1.1 98
2018-01-04 05:00:00 7.4 6 Sur 11 Sur 0 912.9 -1.1 87
2018-01-04 04:00:00 8.4 4 Sur 12 Sudeste 0 913.2 -1.1 85
2018-01-04 03:00:00 8.3 6 Sur 18 Sudoeste 0 913.6 -1.3 82
2018-01-04 02:00:00 9.5 7 Noroeste 24 Sudoeste 0 914 -1 83
2018-01-04 01:00:00 9.2 12 Oeste 27 Oeste 0 914.3 -0.6 85
2018-01-04 00:00:00 9 6 Sudoeste 15 Sudoeste 0 914.9 0 86
2018-01-03 23:00:00 8.6 3 Sudeste 12 Este 0 915 -0.1 89
2018-01-03 22:00:00 8.7 8 Este 14 Sudoeste 0 914.9 0 87
2018-01-03 21:00:00 8.6 6 Este 16 Sudeste 0 914.9 0.2 88
2018-01-03 20:00:00 9.3 6 Este 9 Nordeste 0 915.1 0.2 87
2018-01-03 19:00:00 9.7 5 Este 14 Sudeste 0 914.9 0.2 84
2018-01-03 18:00:00 11.2 6 Sudeste 15 Sudoeste 0 914.7 -0.2 69
2018-01-03 17:00:00 13.9 9 Oeste 21 Sudoeste 0 914.9 -0.8 59
2018-01-03 16:00:00 13.6 16 Sudoeste 27 Sudoeste 0 914.7 -1.6 58
2018-01-03 15:00:00 13.4 7 Sur 23 Sudoeste 0 914.9 -1.7 69
2018-01-03 14:00:00 10.9 10 Este 16 Sudeste 0 915.7 -1 89
2018-01-03 13:00:00 8.7 10 Este 16 Este 0 916.3 0 96
2018-01-03 12:00:00 10.4 6 Sur 12 Este 0 916.6 0.8 89
2018-01-03 11:00:00 9.1 4 Sur 13 Este 0 916.7 0.7 96
2018-01-03 10:00:00 7.9 10 Sur 17 Sudeste 0 916.3 0.9 99
2018-01-03 09:00:00 7.1 10 Sudoeste 14 Sudoeste 0 915.8 0.5 97
2018-01-03 08:00:00 8 9 Sudeste 13 Sudeste 0 916 0.8 95
2018-01-03 07:00:00 8.1 8 Sudeste 14 Nordeste 0 915.4 -0.1 97
2018-01-03 06:00:00 6.8 5 Este 14 Sudoeste 0 915.3 0.1 99
2018-01-03 05:00:00 7.2 4 Sur 16 Sur 0 915.2 -0.2 99
2018-01-03 04:00:00 6.3 4 Este 11 Sur 0 915.5 0 99
2018-01-03 03:00:00 7.7 9 Sudoeste 13 Sudoeste 0 915.2 -0.3 99
2018-01-03 02:00:00 7 6 Sur 13 Sudeste 0 915.4 -0.1 96
2018-01-03 01:00:00 7.4 6 Sur 19 Este 0 915.5 -0.3 96
2018-01-03 00:00:00 7.3 7 Este 19 Sudeste 0 915.5 -0.2 88
2018-01-02 23:00:00 8.8 0 Calma 21 Oeste 0 915.5 -0.1 83
2018-01-02 22:00:00 7.3 6 Este 17 Sudoeste 0 915.8 0.4 88
2018-01-02 21:00:00 9 8 Sudoeste 26 Oeste 0 915.7 0.3 83
2018-01-02 20:00:00 9.1 14 Oeste 29 Oeste 0 915.6 0.3 85
2018-01-02 19:00:00 8.4 10 Sudoeste 23 Sudoeste 0 915.4 -0.3 85
2018-01-02 18:00:00 8.1 8 Sur 25 Oeste 0 915.4 0.3 79
2018-01-02 17:00:00 10 13 Oeste 30 Oeste 0 915.3 -0.4 68
2018-01-02 16:00:00 10.8 12 Oeste 39 Oeste 0 915.7 -0.1 65
2018-01-02 15:00:00 10.5 19 Oeste 38 Oeste 0 915.1 -0.9 62
2018-01-02 14:00:00 9.7 15 Oeste 33 Sudoeste 0 915.7 -0.2 61
2018-01-02 13:00:00 10.3 18 Sur 28 Sur 0 915.8 1.1 59
2018-01-02 12:00:00 10.4 9 Noroeste 25 Noroeste 0 916 1.5 57
2018-01-02 11:00:00 9.3 0 Calma 14 Este 0 915.9 1.6 55
2018-01-02 10:00:00 6.1 6 Este 17 Este 0 914.7 1.5 61
2018-01-02 09:00:00 5.8 11 Sudeste 17 Este 0 914.5 0.8 60
2018-01-02 08:00:00 7.3 4 Noroeste 43 Noroeste 0 914.3 0.6 56
2018-01-02 07:00:00 6.9 19 Oeste 49 Noroeste 0 913.2 -1.1 58
2018-01-02 06:00:00 6.8 17 Oeste 39 Oeste 0 913.7 -0.8 58
2018-01-02 05:00:00 6.3 14 Oeste 31 Oeste 0 913.7 -0.9 58
2018-01-02 04:00:00 6 8 Noroeste 18 Noroeste 0 914.3 -0.3 57
2018-01-02 03:00:00 5.4 5 Sudoeste 20 Sudoeste 0 914.5 -0.1 63
2018-01-02 02:00:00 5.9 11 Sudoeste 27 Oeste 0 914.6 0.2 65
2018-01-02 01:00:00 6.3 10 Sudoeste 23 Sur 0 914.6 0.3 66
2018-01-02 00:00:00 6.9 6 Este 22 Sudeste 0 914.6 1.4 67
2018-01-01 23:00:00 6.9 0 Calma 16 Oeste 0 914.4 1.3 67
2018-01-01 22:00:00 8 9 Sudoeste 45 Oeste 0 914.3 1.7 62
2018-01-01 21:00:00 8.4 24 Oeste 50 Oeste 0 913.2 0.7 59
2018-01-01 20:00:00 7.9 22 Sudoeste 46 Oeste 0 913.1 1.4 63
2018-01-01 19:00:00 7.7 28 Sudoeste 50 Sudoeste 0 912.6 0.5 64
2018-01-01 18:00:00 7.5 26 Sudoeste 54 Sudoeste 0 912.5 1 62
2018-01-01 17:00:00 7.6 25 Oeste 59 Oeste 0 911.7 -0.9 59
2018-01-01 16:00:00 8.6 34 Oeste 65 Oeste 0 912.1 -1 53
2018-01-01 15:00:00 8.8 25 Oeste 59 Oeste 0 911.5 -2.6 49
2018-01-01 14:00:00 7.4 30 Sudoeste 57 Sudoeste 0 912.6 -2.8 46
2018-01-01 13:00:00 6.1 35 Sudoeste 59 Sudoeste 0 913.1 -1.9 42
2018-01-01 12:00:00 6.1 27 Sudoeste 44 Sudoeste 0 914.1 -0.7 37
2018-01-01 11:00:00 5.7 5 Sudoeste 24 Sudoeste 0 915.4 1 42
2018-01-01 10:00:00 3.5 10 Sudoeste 23 Sudoeste 0 915 1.3 46
2018-01-01 09:00:00 1.5 5 Sudoeste 19 Sudoeste 0 914.8 1.3 54
2018-01-01 08:00:00 1.3 5 Este 9 Oeste 0 914.4 0.7 52
2018-01-01 07:00:00 1.6 7 Oeste 12 Oeste 0 913.7 -0.6 51
2018-01-01 06:00:00 1.6 7 Oeste 12 Oeste 0 913.5 0 53
2018-01-01 05:00:00 1.8 5 Sur 14 Sudoeste 0 913.7 0.5 52
2018-01-01 04:00:00 1.9 3 Sudeste 18 Sudeste 0 914.3 0.7 55
2018-01-01 03:00:00 2.3 5 Sudeste 30 Oeste 0 913.5 0.3 53
2018-01-01 02:00:00 3.5 13 Sudoeste 41 Oeste 0 913.2 0.3 46
2018-01-01 01:00:00 3.3 13 Oeste 42 Oeste 0 913.6 1.6 49
2018-01-01 00:00:00 3.4 19 Oeste 44 Sudoeste 0 913.2 2.3 50
2017-12-31 23:00:00 3.9 22 Oeste 45 Oeste 0 912.9 3.1 48
2017-12-31 22:00:00 4.5 18 Noroeste 39 Noroeste 0 912 3.8 48
2017-12-31 21:00:00 4.4 10 Noroeste 40 Oeste 0.1 910.9 4.4 57
2017-12-31 20:00:00 5 17 Oeste 45 Oeste 0 909.8 3.9 66
2017-12-31 19:00:00 5.2 12 Oeste 45 Sudoeste 0 908.2 2.7 62
2017-12-31 18:00:00 5.3 15 Oeste 56 Oeste 1.1 906.5 0.8 78
2017-12-31 17:00:00 6.4 19 Sudoeste 35 Sudoeste 0.2 905.9 -0.5 94
2017-12-31 16:00:00 7.6 18 Sudoeste 35 Sudoeste 0 905.5 -1.6 81
2017-12-31 15:00:00 7.3 15 Sudoeste 32 Sudoeste 0 905.7 -2.1 94
2017-12-31 14:00:00 5.5 15 Sudoeste 28 Sudoeste 0 906.4 -1.8 99
2017-12-31 13:00:00 5.1 17 Sudoeste 27 Sudoeste 0 907.1 -1.3 99
2017-12-31 12:00:00 5.2 15 Sudoeste 26 Sudoeste 0 907.8 -0.5 99
2017-12-31 11:00:00 5.4 9 Sudoeste 18 Sudoeste 0 908.2 0.1 99
2017-12-31 10:00:00 5 11 Sudoeste 21 Sudoeste 0 908.4 0.1 99
2017-12-31 09:00:00 5.1 9 Sudoeste 21 Sudoeste 0 908.3 -0.3 99
2017-12-31 08:00:00 5.5 6 Sur 20 Sudoeste 0 908.1 -1.1 99
2017-12-31 07:00:00 5.6 7 Sudoeste 16 Sudoeste 0 908.3 -1.6 99
2017-12-31 06:00:00 5.5 7 Sudoeste 12 Sudoeste 0 908.6 -1.8 99
2017-12-31 05:00:00 5.3 0 Calma 7 Sur 0 909.2 -1.6 99
2017-12-31 04:00:00 5.9 0 Calma 4 Sudoeste 0 909.9 -1.4 99
2017-12-31 03:00:00 5.7 0 Calma 5 Este 0 910.4 -1 99
2017-12-31 02:00:00 5.8 0 Calma 5 Sudeste 0 910.8 -0.6 99
2017-12-31 01:00:00 5.7 2 Sudeste 8 Sudeste 0 911.3 -0.4 99